Share

Atka, AK

Atka (PAAK) Elev 56 ft | 52.22 °N, 174.21 °W | Change Station

Current weather conditions updated 4 minutes ago

Mostly Cloudy
Mostly Cloudy
36 °F
Feels Like 28 °F
N
10
Wind Variable Wind from WNW
Sunrise 7:33 AM
Sunset 9:41 PM
Moon Waning Gibbous

Today is forecast to be Cooler than yesterday. A mix of rain and snow early tonight.

Pressure 29.43 in
Visibility 10.0 miles
Clouds Few 1500 ft
Mostly Cloudy 2600 ft
Mostly Cloudy 3200 ft
Windchill 28 °F
Dew Point 28 °F
Humidity 75%
Rainfall 0.00 in
Snow Depth Not available.
UV 0 out of 16
Pollen Not available.
Air Quality Not available.
Flu Activity Sporadic
METAR PAAK 181536Z 30009KT 10SM FEW015 BKN026 BKN032 02/M02 A2943 RMK AO1

More Conditions Fewer Conditions

Pressure 29.43 in
Visibility 10.0 miles
Clouds Few 1500 ft
Mostly Cloudy 2600 ft
Mostly Cloudy 3200 ft
Windchill 28 °F
Dew Point 28 °F
Humidity 75%
Rainfall 0.00 in
Snow Depth Not available.
UV 0 out of 16
Pollen Not available.
Air Quality Not available.
Flu Activity Sporadic
METAR PAAK 181536Z 30009KT 10SM FEW015 BKN026 BKN032 02/M02 A2943 RMK AO1

More Conditions Fewer Conditions

10-Day Forecast

Almanac

Astronomy

Apr. 18, 2014 Rise Set
Actual Time 7:33 AM HADT 9:41 PM HADT
Civil Twilight 6:57 AM HADT 10:18 PM HADT
Nautical Twilight 6:11 AM HADT 11:04 PM HADT
Astronomical Twilight 5:18 AM HADT 11:57 PM HADT
Moon 12:56 AM HADT 9:51 AM HADT
Length of Visible Light 15h 21m
Length of Day
14h 07m
Tomorrow will be 3m 52s longer.
Waning Gibbous, 87% of the Moon is Illuminated
Today
Waning Gibbous
Apr 22
Last Quarter
Apr 29
New
May 6
First Quarter
May 14
Full

Today's Extremes

State Highs State Lows

Community

  • What's for Lunch?
    What's for Lunch?
  • SUNRISE THROUGH THE TREES.
    SUNRISE THROUGH THE TREES.
  • Dog Wood Blossoms
    Dog Wood Blossoms
  • Morning Light
    Morning Light
  • New Day
    New Day

WunderPhotos

Upload Photos

1,702,397 photos uploaded!

Nearby

Snow Depth

Station Depth Elevation
Rocky Point 6 in 500 ft
Pargon Creek 3 in 300 ft
Port Graham 9 in 300 ft
Mcneil Canyon 10 in 1320 ft
MF Bradley River 22 in 2300 ft

Coastal Water Temperatures

Place Temperature
No Stations Reporting

Earthquake Activity

City Distance Mag. Time & Date
No recent earthquake activity has been reported nearby.
Minimum magnitude displayed is 2.5.

Nearby Weather Stations

There are no personal weather stations in this area.

What do you think?

We're not finished. Please let us know what you like, what you don't like, and what you are still missing.